Knoxville, TN (37914)

3:48 PM EST on February 28, 2015 (GMT -0500)
Orchid Hills | Change Station
CLOSE
Current Station
Personal Weather Station
Location: Knoxville, TN
Elevation: 978 ft
Nearby Weather Stations

Elev 978 ft 35.98 °N, 83.87 °W | Updated 30 seconds ago

Partly Cloudy
Partly Cloudy
46.6 °F
Feels Like 47 °F
N
1.8
Wind Variable Wind from WNW
Gusts 2.5 mph

Today
High -- | Low -- °F
--% Chance of Precip.
Yesterday
High -- | Low -- °F
Precip. -- in
7:07 AM 6:29 PM
Waxing Gibbous, 80% visible
Pressure 30.53 in
Visibility 10.0 miles
Clouds Scattered Clouds 18000 ft
Mostly Cloudy 25000 ft
Windchill 47 °F
Dew Point 23 °F
Humidity 39%
Rainfall 0.09 in
Snow Depth Not available.
UV 2.0 out of 12
Pollen 1.20 out of 12
Air Quality Not available.
Flu Activity Not available.
METAR KTYS 281953Z 05005KT 10SM SCT180 BKN250 07/M04 A3051 RMK AO2 SLP339 T00671044

More Conditions Fewer Conditions

Pressure 30.53 in
Visibility 10.0 miles
Clouds Scattered Clouds 18000 ft
Mostly Cloudy 25000 ft
Windchill 47 °F
Dew Point 23 °F
Humidity 39%
Rainfall 0.09 in
Snow Depth Not available.
UV 2.0 out of 12
Pollen 1.20 out of 12
Air Quality Not available.
Flu Activity Not available.
METAR KTYS 281953Z 05005KT 10SM SCT180 BKN250 07/M04 A3051 RMK AO2 SLP339 T00671044

More Conditions Fewer Conditions

10-Day Weather Forecast

Almanac

Astronomy

Feb. 28, 2015 Rise Set
Actual Time
Civil Twilight
Nautical Twilight
Astronomical Twilight
Moon
Length of Visible Light
Length of Day
Tomorrow will be .
, % of the Moon is Illuminated

Today's Extremes

State Highs State Lows

Community

WunderPhotos

Upload Photos

1,801,145 photos uploaded!

WunderBlogs® & News

Nearby

Air Quality

  Air Quality AQ Index Pollutant
Not available.

Snow Depth

Station Depth Elevation

Earthquake Activity

City Distance Mag. Time & Date
Minimum magnitude displayed is 2.5.

Coastal Water Temperatures

Place Temperature

Nearby Weather Stations